createdAt,value
2023-02-15T00:01:37.281Z,55.47
2023-02-15T00:04:07.873Z,53.70
2023-02-15T00:06:38.217Z,56.27
2023-02-15T00:09:08.379Z,56.70
2023-02-15T00:11:46.059Z,57.03
2023-02-15T00:14:18.696Z,61.77
2023-02-15T00:16:53.242Z,58.67
2023-02-15T00:19:24.275Z,57.03
2023-02-15T00:21:54.663Z,58.40
2023-02-15T00:24:24.802Z,65.00
2023-02-15T00:26:54.918Z,60.17
2023-02-15T00:29:25.272Z,60.70
2023-02-15T00:31:57.840Z,73.00
2023-02-15T00:34:29.708Z,61.30
2023-02-15T00:37:00.686Z,68.03
2023-02-15T00:39:31.001Z,63.40
2023-02-15T00:42:01.052Z,65.17
2023-02-15T00:44:31.211Z,60.47
2023-02-15T00:47:03.823Z,63.63
2023-02-15T00:49:34.016Z,63.30
2023-02-15T00:52:04.132Z,69.60
2023-02-15T00:54:35.613Z,64.20
2023-02-15T00:57:05.782Z,67.50
2023-02-15T00:59:35.736Z,71.13
2023-02-15T01:02:08.389Z,63.77
2023-02-15T01:04:38.373Z,64.73
2023-02-15T01:07:08.533Z,68.87
2023-02-15T01:09:38.473Z,68.20
2023-02-15T01:12:09.901Z,69.97
2023-02-15T01:14:40.035Z,63.93
2023-02-15T01:17:12.662Z,59.83
2023-02-15T01:19:42.574Z,62.23
2023-02-15T01:22:12.682Z,70.23
2023-02-15T01:24:43.474Z,67.53
2023-02-15T01:27:13.839Z,67.03
2023-02-15T01:29:43.912Z,66.23
2023-02-15T01:32:16.610Z,69.33
2023-02-15T01:34:46.914Z,80.87
2023-02-15T01:37:17.082Z,70.77
2023-02-15T01:39:47.378Z,73.60
2023-02-15T01:42:17.440Z,68.93
2023-02-15T01:44:54.130Z,78.80
2023-02-15T01:47:31.064Z,74.50
2023-02-15T01:50:07.348Z,79.40
2023-02-15T01:52:47.898Z,74.80
2023-02-15T01:55:18.491Z,75.03
2023-02-15T01:57:50.021Z,70.23
2023-02-15T02:00:22.700Z,81.77
2023-02-15T02:02:58.989Z,77.80
2023-02-15T02:05:29.645Z,76.47
2023-02-15T02:08:02.229Z,96.67
2023-02-15T02:10:32.986Z,83.80
2023-02-15T02:13:06.336Z,84.63
2023-02-15T02:15:44.630Z,87.00
2023-02-15T02:18:34.134Z,88.13
2023-02-15T02:21:34.098Z,89.30
2023-02-15T02:24:27.628Z,83.60
2023-02-15T02:27:24.153Z,82.70
2023-02-15T02:30:40.943Z,86.97
2023-02-15T02:33:31.955Z,94.70
2023-02-15T02:36:12.671Z,102.80
2023-02-15T02:38:52.649Z,95.23
2023-02-15T02:41:31.847Z,95.17
2023-02-15T02:44:11.508Z,92.10
2023-02-15T02:46:49.321Z,89.00
2023-02-15T02:49:33.728Z,91.13
2023-02-15T02:52:05.311Z,98.83
2023-02-15T02:54:39.450Z,92.33
2023-02-15T02:57:13.032Z,93.97
2023-02-15T02:59:49.574Z,104.40
2023-02-15T03:02:25.551Z,93.63
2023-02-15T03:05:04.969Z,102.10
2023-02-15T03:07:37.567Z,96.70
2023-02-15T03:10:11.631Z,99.30
2023-02-15T03:12:44.573Z,97.37
2023-02-15T03:15:20.765Z,102.03
2023-02-15T03:17:57.108Z,98.00
2023-02-15T03:20:34.420Z,103.63
2023-02-15T03:23:10.105Z,107.87
2023-02-15T03:25:47.176Z,104.03
2023-02-15T03:28:22.314Z,100.10
2023-02-15T03:31:00.643Z,106.60
2023-02-15T03:33:32.667Z,98.57
2023-02-15T03:36:12.449Z,99.70
2023-02-15T03:38:48.780Z,100.30
2023-02-15T03:41:23.225Z,95.37
2023-02-15T03:43:58.400Z,97.40
2023-02-15T03:46:34.082Z,90.27
2023-02-15T03:49:09.770Z,99.87
2023-02-15T03:51:46.553Z,98.50
2023-02-15T03:54:39.455Z,89.93
2023-02-15T03:57:25.469Z,101.73
2023-02-15T04:00:08.007Z,103.50
2023-02-15T04:02:48.295Z,109.73
2023-02-15T04:05:18.352Z,101.20
2023-02-15T04:07:51.212Z,110.00
2023-02-15T04:10:33.835Z,101.40
2023-02-15T04:13:03.840Z,99.20
2023-02-15T04:15:46.223Z,103.07
2023-02-15T04:18:16.313Z,108.17
2023-02-15T04:21:00.377Z,99.93
2023-02-15T04:23:45.538Z,100.67
2023-02-15T04:26:15.611Z,104.57
2023-02-15T04:28:45.628Z,105.00
2023-02-15T04:31:15.675Z,109.03
2023-02-15T04:33:45.721Z,112.17
2023-02-15T04:36:15.678Z,114.77
2023-02-15T04:38:48.214Z,105.37
2023-02-15T04:41:18.161Z,109.07
2023-02-15T04:43:48.268Z,104.43
2023-02-15T04:46:18.238Z,103.70
2023-02-15T04:48:48.212Z,109.20
2023-02-15T04:51:18.081Z,103.07
2023-02-15T04:53:50.690Z,116.63
2023-02-15T04:56:20.585Z,103.17
2023-02-15T04:58:50.642Z,118.00
2023-02-15T05:01:24.823Z,114.33
2023-02-15T05:03:54.845Z,110.70
2023-02-15T05:06:24.999Z,101.20
2023-02-15T05:09:00.098Z,116.27
2023-02-15T05:11:30.078Z,116.10
2023-02-15T05:14:00.097Z,104.37
2023-02-15T05:16:30.687Z,111.67
2023-02-15T05:19:00.748Z,115.40
2023-02-15T05:21:30.888Z,103.80
2023-02-15T05:24:23.547Z,109.87
2023-02-15T05:27:05.971Z,105.43
2023-02-15T05:29:36.017Z,108.30
2023-02-15T05:32:06.335Z,111.83
2023-02-15T05:34:36.348Z,113.43
2023-02-15T05:37:06.283Z,105.40
2023-02-15T05:39:38.942Z,111.73
2023-02-15T05:42:12.605Z,107.83
2023-02-15T05:44:42.578Z,109.93
2023-02-15T05:47:12.663Z,107.17
2023-02-15T05:49:42.601Z,107.67
2023-02-15T05:52:13.235Z,103.50
2023-02-15T05:54:45.808Z,96.07
2023-02-15T05:57:15.705Z,103.87
2023-02-15T05:59:48.995Z,104.10
2023-02-15T06:02:18.943Z,99.87
2023-02-15T06:04:48.973Z,93.03
2023-02-15T06:07:18.886Z,109.23
2023-02-15T06:09:51.436Z,104.53
2023-02-15T06:12:22.168Z,105.93
2023-02-15T06:15:19.706Z,118.00
2023-02-15T06:17:49.800Z,146.27
2023-02-15T06:20:19.969Z,150.77
2023-02-15T06:22:50.465Z,134.60
2023-02-15T06:25:23.433Z,121.63
2023-02-15T06:27:53.320Z,230.80
2023-02-15T06:30:23.808Z,130.87
2023-02-15T06:32:53.846Z,348.43
2023-02-15T06:35:23.796Z,274.07
2023-02-15T06:37:53.844Z,163.73
2023-02-15T06:40:26.427Z,132.57
2023-02-15T06:42:56.341Z,427.03
2023-02-15T06:45:26.345Z,232.07
2023-02-15T06:47:56.312Z,129.33
2023-02-15T06:50:26.474Z,167.73
2023-02-15T06:53:00.529Z,707.53
2023-02-15T06:55:33.062Z,128.23
2023-02-15T06:58:03.036Z,252.67
2023-02-15T07:00:36.406Z,319.70
2023-02-15T07:03:06.517Z,195.67
2023-02-15T07:05:37.881Z,110.60
2023-02-15T07:08:08.981Z,263.17
2023-02-15T07:10:41.569Z,149.27
2023-02-15T07:13:08.947Z,172.27
2023-02-15T07:15:38.849Z,360.20
2023-02-15T07:18:10.102Z,299.60
2023-02-15T07:20:42.711Z,295.57
2023-02-15T07:23:12.749Z,431.83
2023-02-15T07:25:45.283Z,534.07
2023-02-15T07:28:16.961Z,232.03
2023-02-15T07:30:48.322Z,229.77
2023-02-15T07:33:28.184Z,369.60
2023-02-15T07:36:00.647Z,485.20
2023-02-15T07:38:33.975Z,257.70
2023-02-15T07:41:08.760Z,614.63
2023-02-15T07:43:41.474Z,234.60
2023-02-15T07:46:13.297Z,631.33
2023-02-15T07:48:44.382Z,234.93
2023-02-15T07:51:16.928Z,161.57
2023-02-15T07:53:48.103Z,319.10
2023-02-15T07:56:20.682Z,281.20
2023-02-15T07:58:56.925Z,324.00
2023-02-15T08:01:29.847Z,441.00
2023-02-15T08:04:00.789Z,111.23
2023-02-15T08:06:33.144Z,227.53
2023-02-15T08:09:03.924Z,245.67
2023-02-15T08:11:40.706Z,519.93
2023-02-15T08:14:12.326Z,160.50
2023-02-15T08:16:43.535Z,126.50
2023-02-15T08:19:15.137Z,177.67
2023-02-15T08:21:48.003Z,143.50
2023-02-15T08:24:20.697Z,111.40
2023-02-15T08:26:54.204Z,247.90
2023-02-15T08:29:26.202Z,395.57
2023-02-15T08:31:59.786Z,296.27
2023-02-15T08:34:29.868Z,194.80
2023-02-15T08:37:00.124Z,116.90
2023-02-15T08:39:30.403Z,166.03
2023-02-15T08:42:03.129Z,258.03
2023-02-15T08:44:33.098Z,301.30
2023-02-15T08:47:04.888Z,271.63
2023-02-15T08:49:35.694Z,229.30
2023-02-15T08:52:05.653Z,374.30
2023-02-15T08:54:35.634Z,291.60
2023-02-15T08:57:11.705Z,313.50
2023-02-15T08:59:41.790Z,180.37
2023-02-15T09:02:14.225Z,218.27
2023-02-15T09:04:44.189Z,469.00
2023-02-15T09:07:14.183Z,188.90
2023-02-15T09:09:44.247Z,113.67
2023-02-15T09:12:16.961Z,125.40
2023-02-15T09:14:46.943Z,128.17
2023-02-15T09:17:16.872Z,96.77
2023-02-15T09:19:48.985Z,165.70
2023-02-15T09:22:18.911Z,89.73
2023-02-15T09:24:49.070Z,296.97
2023-02-15T09:27:21.592Z,302.77
2023-02-15T09:29:51.528Z,150.53
2023-02-15T09:32:21.611Z,148.50
2023-02-15T09:34:53.961Z,158.20
2023-02-15T09:37:23.967Z,90.53
2023-02-15T09:39:55.158Z,159.20
2023-02-15T09:42:59.954Z,149.33
2023-02-15T09:45:49.870Z,84.87
2023-02-15T09:48:42.298Z,111.93
2023-02-15T09:51:50.718Z,108.57
2023-02-15T09:54:49.914Z,138.90
2023-02-15T09:57:31.068Z,97.20
2023-02-15T10:00:12.640Z,102.73
2023-02-15T10:03:00.588Z,75.93
2023-02-15T10:05:43.061Z,85.87
2023-02-15T10:08:44.512Z,99.63
2023-02-15T10:11:32.120Z,77.07
2023-02-15T10:14:16.584Z,82.90
2023-02-15T10:16:59.824Z,86.20
2023-02-15T10:19:38.516Z,72.60
2023-02-15T10:22:23.277Z,85.17
2023-02-15T10:25:16.565Z,75.87
2023-02-15T10:27:50.244Z,72.27
2023-02-15T10:30:32.205Z,74.87
2023-02-15T10:33:09.737Z,72.63
2023-02-15T10:35:47.700Z,75.63
2023-02-15T10:38:28.316Z,70.30
2023-02-15T10:41:12.009Z,67.77
2023-02-15T10:44:09.629Z,65.93
2023-02-15T10:46:59.937Z,71.20
2023-02-15T10:49:52.842Z,68.63
2023-02-15T10:52:33.752Z,62.37
2023-02-15T10:55:13.569Z,71.27
2023-02-15T10:57:55.470Z,66.80
2023-02-15T11:00:32.322Z,65.00
2023-02-15T11:03:24.945Z,60.57
2023-02-15T11:06:07.104Z,67.97
2023-02-15T11:08:42.272Z,83.40
2023-02-15T11:11:16.042Z,58.40
2023-02-15T11:13:50.762Z,59.67
2023-02-15T11:16:25.266Z,134.20
2023-02-15T11:18:59.802Z,59.20
2023-02-15T11:21:37.928Z,50.17
2023-02-15T11:24:15.201Z,47.53
2023-02-15T11:26:47.825Z,42.90
2023-02-15T11:29:25.573Z,48.20
2023-02-15T11:32:04.029Z,44.83
2023-02-15T11:34:40.991Z,43.07
2023-02-15T11:37:19.783Z,45.60
2023-02-15T11:39:52.624Z,40.30
2023-02-15T11:42:27.720Z,42.63
2023-02-15T11:45:07.169Z,39.53
2023-02-15T11:47:37.414Z,45.10
2023-02-15T11:50:08.445Z,39.73
2023-02-15T11:52:41.064Z,36.80
2023-02-15T11:55:18.049Z,41.13
2023-02-15T11:57:53.741Z,40.13
2023-02-15T12:00:32.413Z,38.25
2023-02-15T12:03:02.879Z,38.63
2023-02-15T12:05:35.419Z,39.88
2023-02-15T12:08:18.840Z,38.45
2023-02-15T12:11:01.985Z,36.75
2023-02-15T12:13:32.403Z,42.83
2023-02-15T12:16:11.479Z,36.78
2023-02-15T12:18:48.142Z,33.65
2023-02-15T12:21:27.737Z,35.40
2023-02-15T12:24:07.166Z,37.70
2023-02-15T12:26:39.494Z,37.35
2023-02-15T12:29:18.919Z,38.75
2023-02-15T12:31:50.263Z,34.78
2023-02-15T12:34:26.191Z,35.47
2023-02-15T12:36:59.939Z,33.97
2023-02-15T12:39:33.965Z,36.60
2023-02-15T12:42:06.989Z,32.85
2023-02-15T12:44:38.972Z,32.53
2023-02-15T12:47:21.247Z,32.95
2023-02-15T12:50:17.878Z,31.45
2023-02-15T12:52:52.376Z,31.00
2023-02-15T12:55:28.339Z,36.40
2023-02-15T12:58:11.950Z,34.80
2023-02-15T13:00:42.056Z,34.58
2023-02-15T13:03:21.405Z,35.70
2023-02-15T13:05:55.777Z,33.40
2023-02-15T13:08:32.289Z,32.75
2023-02-15T13:11:10.805Z,29.20
2023-02-15T13:13:55.253Z,29.80
2023-02-15T13:16:32.094Z,30.97
2023-02-15T13:19:07.902Z,29.40
2023-02-15T13:21:42.497Z,31.53
2023-02-15T13:24:22.802Z,27.80
2023-02-15T13:27:09.305Z,29.48
2023-02-15T13:29:47.856Z,31.35
2023-02-15T13:32:29.894Z,30.73
2023-02-15T13:35:02.205Z,32.77
2023-02-15T13:37:52.372Z,31.23
2023-02-15T13:40:28.487Z,33.73
2023-02-15T13:43:06.994Z,32.50
2023-02-15T13:45:45.416Z,33.47
2023-02-15T13:48:31.466Z,35.73
2023-02-15T13:51:16.691Z,33.17
2023-02-15T13:54:22.799Z,32.10
2023-02-15T13:57:07.895Z,30.37
2023-02-15T13:59:57.567Z,33.67
2023-02-15T14:02:50.476Z,33.97
2023-02-15T14:05:37.983Z,33.13
2023-02-15T14:08:18.194Z,36.17
2023-02-15T14:10:59.203Z,32.80
2023-02-15T14:13:57.495Z,31.20
2023-02-15T14:16:40.404Z,34.20
2023-02-15T14:19:26.718Z,31.00
2023-02-15T14:22:06.355Z,32.20
2023-02-15T14:24:47.468Z,32.10
2023-02-15T14:27:27.865Z,32.00
2023-02-15T14:30:03.277Z,31.50
2023-02-15T14:32:44.321Z,32.40
2023-02-15T14:35:17.960Z,30.43
2023-02-15T14:37:54.947Z,32.57
2023-02-15T14:40:52.001Z,34.07
2023-02-15T14:43:31.897Z,31.17
2023-02-15T14:46:07.483Z,33.17
2023-02-15T14:48:45.558Z,29.20
2023-02-15T14:51:57.947Z,31.63
2023-02-15T14:54:59.858Z,26.77
2023-02-15T14:57:37.316Z,27.53
2023-02-15T15:00:43.088Z,27.47
2023-02-15T15:03:25.409Z,31.60
2023-02-15T15:06:03.238Z,26.70
2023-02-15T15:08:38.927Z,29.93
2023-02-15T15:11:43.741Z,30.10
2023-02-15T15:14:30.450Z,34.73
2023-02-15T15:17:01.011Z,28.43
2023-02-15T15:20:08.451Z,29.27
2023-02-15T15:22:41.211Z,33.90
2023-02-15T15:25:36.462Z,32.03
2023-02-15T15:28:06.741Z,27.73
2023-02-15T15:30:55.724Z,28.27
2023-02-15T15:33:55.856Z,31.93
2023-02-15T15:36:53.855Z,35.53
2023-02-15T15:40:02.450Z,30.73
2023-02-15T15:42:45.294Z,34.13
2023-02-15T15:46:20.172Z,31.33
2023-02-15T15:48:50.356Z,30.93
2023-02-15T15:51:24.163Z,30.97
2023-02-15T15:53:55.876Z,27.20
2023-02-15T15:56:33.487Z,31.83
2023-02-15T15:59:06.536Z,30.50
2023-02-15T16:01:43.610Z,36.77
2023-02-15T16:04:16.555Z,35.83
2023-02-15T16:06:46.918Z,32.83
2023-02-15T16:09:21.477Z,32.50
2023-02-15T16:11:59.527Z,39.97
2023-02-15T16:14:34.138Z,36.77
2023-02-15T16:17:06.321Z,37.60
2023-02-15T16:19:43.306Z,31.50
2023-02-15T16:22:19.863Z,31.53
2023-02-15T16:25:12.819Z,30.70
2023-02-15T16:27:47.098Z,34.50
2023-02-15T16:30:24.425Z,42.30
2023-02-15T16:32:58.446Z,36.87
2023-02-15T16:35:28.419Z,43.00
2023-02-15T16:37:58.460Z,62.53
2023-02-15T16:40:53.217Z,44.93
2023-02-15T16:43:30.752Z,38.93
2023-02-15T16:46:09.659Z,40.87
2023-02-15T16:48:47.853Z,38.23
2023-02-15T16:51:25.345Z,40.13
2023-02-15T16:53:57.863Z,46.37
2023-02-15T16:56:31.371Z,35.27
2023-02-15T16:59:05.654Z,48.23
2023-02-15T17:01:36.724Z,43.23
2023-02-15T17:04:17.598Z,49.07
2023-02-15T17:07:02.190Z,38.33
2023-02-15T17:09:35.535Z,51.33
2023-02-15T17:12:05.822Z,43.53
2023-02-15T17:14:44.061Z,44.37
2023-02-15T17:17:22.697Z,50.43
2023-02-15T17:19:56.031Z,47.43
2023-02-15T17:22:31.651Z,53.93
2023-02-15T17:25:07.313Z,50.37
2023-02-15T17:27:39.542Z,54.63
2023-02-15T17:30:21.088Z,53.97
2023-02-15T17:32:57.386Z,67.37
2023-02-15T17:35:28.642Z,52.33
2023-02-15T17:38:10.199Z,55.53
2023-02-15T17:40:40.622Z,102.23
2023-02-15T17:43:10.699Z,69.13
2023-02-15T17:45:50.661Z,65.80
2023-02-15T17:48:25.390Z,74.20
2023-02-15T17:50:56.646Z,62.03
2023-02-15T17:53:28.373Z,60.73
2023-02-15T17:55:56.276Z,65.37
2023-02-15T17:58:26.182Z,54.00
2023-02-15T18:01:13.795Z,58.37
2023-02-15T18:04:03.759Z,57.00
2023-02-15T18:06:46.820Z,59.87
2023-02-15T18:09:31.013Z,57.40
2023-02-15T18:12:01.662Z,58.07
2023-02-15T18:14:31.914Z,64.83
2023-02-15T18:17:04.631Z,63.87
2023-02-15T18:19:39.534Z,66.10
2023-02-15T18:22:13.929Z,83.00
2023-02-15T18:24:44.355Z,104.10
2023-02-15T18:27:15.405Z,61.67
2023-02-15T18:29:46.007Z,78.60
2023-02-15T18:32:21.612Z,69.83
2023-02-15T18:34:52.521Z,57.10
2023-02-15T18:37:24.486Z,57.90
2023-02-15T18:39:55.875Z,58.63
2023-02-15T18:42:27.898Z,64.23
2023-02-15T18:45:02.649Z,58.30
2023-02-15T18:47:36.560Z,76.77
2023-02-15T18:50:07.385Z,62.73
2023-02-15T18:52:40.383Z,68.03
2023-02-15T18:55:20.564Z,63.20
2023-02-15T18:57:53.359Z,61.53
2023-02-15T19:00:29.716Z,60.87
2023-02-15T19:03:04.427Z,56.30
2023-02-15T19:05:36.197Z,55.43
2023-02-15T19:08:06.796Z,65.53
2023-02-15T19:10:37.104Z,67.37
2023-02-15T19:13:07.367Z,60.07
2023-02-15T19:15:38.815Z,69.97
2023-02-15T19:18:11.529Z,473.20
2023-02-15T19:20:43.783Z,133.43
2023-02-15T19:23:20.222Z,70.50
2023-02-15T19:25:50.775Z,68.63
2023-02-15T19:28:24.210Z,70.43
2023-02-15T19:30:54.381Z,66.30
2023-02-15T19:33:27.127Z,69.53
2023-02-15T19:35:59.149Z,71.03
2023-02-15T19:38:36.626Z,78.87
2023-02-15T19:41:10.400Z,75.83
2023-02-15T19:43:40.820Z,69.03
2023-02-15T19:46:20.153Z,69.27
2023-02-15T19:48:53.903Z,75.60
2023-02-15T19:51:26.551Z,64.13
2023-02-15T19:53:57.788Z,74.43
2023-02-15T19:56:28.016Z,84.10
2023-02-15T19:58:58.724Z,76.17
2023-02-15T20:01:28.926Z,82.67
2023-02-15T20:04:01.668Z,145.00
2023-02-15T20:06:31.709Z,94.60
2023-02-15T20:09:02.352Z,76.50
2023-02-15T20:11:32.373Z,70.77
2023-02-15T20:14:02.453Z,68.43
2023-02-15T20:53:00.385Z,86.00
2023-02-15T20:55:32.445Z,84.40
2023-02-15T20:58:05.236Z,93.57
2023-02-15T21:00:35.324Z,102.87
2023-02-15T21:03:05.275Z,97.00
2023-02-15T21:05:35.913Z,87.20
2023-02-15T21:08:15.000Z,87.13
2023-02-15T21:10:45.804Z,77.40
2023-02-15T21:13:23.946Z,77.37
2023-02-15T21:15:55.973Z,79.37
2023-02-15T21:18:28.261Z,82.60
2023-02-15T21:21:00.359Z,88.40
2023-02-15T21:23:37.296Z,75.33
2023-02-15T21:26:08.885Z,75.73
2023-02-15T21:28:40.384Z,81.63
2023-02-15T21:31:19.442Z,82.50
2023-02-15T21:33:49.429Z,69.00
2023-02-15T21:36:21.791Z,69.60
2023-02-15T21:38:55.279Z,79.37
2023-02-15T21:41:39.472Z,80.23
2023-02-15T21:44:31.270Z,75.53
2023-02-15T21:47:13.611Z,63.00
2023-02-15T21:49:43.574Z,60.33
2023-02-15T21:52:12.898Z,56.57
2023-02-15T21:55:00.280Z,56.27
2023-02-15T21:57:30.744Z,58.90
2023-02-15T22:00:00.650Z,54.60
2023-02-15T22:02:33.027Z,52.67
2023-02-15T22:05:03.001Z,56.57
2023-02-15T22:07:32.962Z,58.93
2023-02-15T22:10:06.023Z,60.43
2023-02-15T22:12:36.127Z,59.63
2023-02-15T22:15:06.223Z,59.70
2023-02-15T22:17:36.476Z,59.57
2023-02-15T22:20:16.704Z,61.27
2023-02-15T22:22:46.704Z,58.37
2023-02-15T22:25:21.399Z,70.03
2023-02-15T22:27:53.213Z,59.67
2023-02-15T22:30:28.476Z,46.73
2023-02-15T22:33:00.568Z,50.17
2023-02-15T22:35:33.364Z,50.00
2023-02-15T22:38:03.866Z,46.93
2023-02-15T22:40:37.524Z,54.77
2023-02-15T22:43:08.941Z,53.10
2023-02-15T22:45:39.048Z,55.43
2023-02-15T22:48:09.114Z,46.70
2023-02-15T22:50:39.098Z,54.73
2023-02-15T22:53:09.259Z,51.50
2023-02-15T22:55:42.078Z,51.87
2023-02-15T22:58:19.879Z,55.37
2023-02-15T23:00:50.534Z,56.33
2023-02-15T23:03:23.888Z,57.27
2023-02-15T23:05:54.265Z,55.17
2023-02-15T23:08:24.376Z,62.90
2023-02-15T23:10:59.468Z,57.17
2023-02-15T23:13:33.480Z,52.63
2023-02-15T23:16:06.754Z,46.47
2023-02-15T23:18:39.703Z,54.33
2023-02-15T23:21:19.560Z,47.63
2023-02-15T23:23:53.380Z,48.43
2023-02-15T23:26:28.475Z,51.30
2023-02-15T23:29:00.676Z,51.70
2023-02-15T23:31:34.537Z,62.00
2023-02-15T23:34:10.165Z,62.67
2023-02-15T23:36:42.051Z,59.80
2023-02-15T23:39:28.680Z,60.10
2023-02-15T23:42:02.166Z,54.93
2023-02-15T23:44:33.475Z,54.83
2023-02-15T23:47:03.617Z,56.13
2023-02-15T23:49:33.684Z,50.73
2023-02-15T23:52:04.691Z,53.17
2023-02-15T23:54:34.637Z,56.63
2023-02-15T23:57:07.484Z,56.97
2023-02-15T23:59:38.731Z,55.53
